Providence, Rhode Island
Current Conditions -  °F | °C
As of 6:51 PM on Saturday 22 Nov 2014 (Local Time) from KPVD Reporting Station
Broken Clouds Broken Clouds  
Wind Chill:   Ceiling: 11000
Heat Index:   Visibility: 10mi
Dew Point: -4°   Wind: 13mph
Humidity: 55%   Direction: 220°SW
Pressure: 30.17"   Gusts: NA
Location:  41.82°N, 71.41°W
Report Text: KPVD 222351Z 22011KT 10SM FEW055 FEW075 BKN110 BKN160 BKN180 04/M04 A3017 RMK AO2 SLP216 T00441039 10061 20033 58017
Loading
Personal Weather Stations






























Interactive Weather Map New forecast layout! Learn more

10-Day Weather Forecast

Advertisements
Track Severe Weather on mobile